AirNav   SIMCOM
 
 1086 users online  

VA72 Covington Airport
Martinsville, Virginia, USA

GOING TO MARTINSVILLE?


FAA INFORMATION EFFECTIVE 20 JULY 2017

Location

FAA Identifier: VA72
Lat/Long: 36-36-00.4950N / 080-02-19.1610W
36-36.008250N / 080-02.319350W
36.6001375 / -80.0386558
(estimated)
Elevation: 940 ft. / 287 m (estimated)
Variation: 06W (1985)
From city: 10 miles SW of MARTINSVILLE, VA
Time zone: UTC -4 (UTC -5 during Standard Time)
Zip code: 24165

Airport Operations

Airport use: Private use. Permission required prior to landing
Control tower: no
ARTCC: WASHINGTON CENTER
FSS: LEESBURG FLIGHT SERVICE STATION
Attendance: UNATNDD
Wind indicator: yes
Segmented circle: no

Airport Communications

WX AWOS-3 at MTV (2.1 nm NE): 118.45 (276-957-3784)
WX AWOS-3 at SIF (13 nm SE): 119.775 (336-573-3677)

Nearby radio navigation aids

VOR radial/distance  VOR name  Freq  Var
GSOr358/33.4GREENSBORO VORTAC116.2003W
DANr279/(33.9)DANVILLE VOR113.1006W

 
NDB name  Hdg/Dist  Freq  Var  ID
BALES283/5.939607WUV ..- ...-
SLAMMER322/18.742307WSIF ... .. ..-.
VINTON200/37.027708WVIT ...- .. -
ZEPHYR070/37.532608WZEF --.. . ..-.

Airport Services

Airframe service: NONE
Powerplant service: NONE

Runway Information

Runway 12/30

Dimensions: 2200 x 100 ft. / 671 x 30 m
Surface: turf
RUNWAY 12  RUNWAY 30
Traffic pattern: rightright

Airport Ownership and Management from official FAA records

Ownership: Privately-owned
Owner: C W COVINGTON
AIR HAVEN FARM, PO BOX 155
SPENCER, VA 24165
Phone 703-957-2903

Airport Operational Statistics

Aircraft based on the field: 2
Single engine airplanes: 2
    

Instrument Procedures

There are no published instrument procedures at VA72.

Some nearby airports with instrument procedures:

KMTV - Blue Ridge Airport (2 nm NE)
KSIF - Rockingham County NC Shiloh Airport (13 nm SE)
N63 - Meadow Brook Field Airport (19 nm S)
KMWK - Mount Airy/Surry County Airport (26 nm W)
KINT - Smith Reynolds Airport (29 nm S)
 
Loc | Ops | Rwys | IFR | FBO | Links
Com | Nav | Svcs | Stats | Notes


 
Area around VA72 (Covington Airport)
 
Road maps at: MapQuest Bing Google
 
Aerial photo
WARNING: Photo may not be current or correct
Aerial photo of VA72 (Covington Airport)
Do you have a better or more recent aerial photo of Covington Airport that you would like to share? If so, please send us your photo.

 
Sectional chart

 
Airport distance calculator
Flying to Covington Airport? Find the distance to fly.

From to VA72

Sunrise and sunset
Times for 26-Jul-2017
 Local
(UTC-4)
 Zulu
(UTC)
Morning civil twilight05:5309:53
Sunrise06:2210:22
Sunset20:3100:31
Evening civil twilight21:0001:00

Current date and time
Zulu (UTC)  26-Jul-2017 12:51:27
Local (UTC-4)  26-Jul-2017 08:51:27
 
METAR
KMTV 261235Z AUTO 35004KT 10SM BKN029 BKN043 OVC060 21/16 A3027 RMK AO2 T02050156
KSIF 
13nm SE 
261230Z AUTO 00000KT 7SM BKN029 OVC060 21/17 A3023 RMK AO2 T02100172
TAF
KINT 
29nm S 
261122Z 2612/2712 05005KT P6SM BKN035 TEMPO 2612/2614 BKN020 FM261500 10005KT P6SM SCT040
KGSO 
30nm S 
261122Z 2612/2712 05005KT P6SM BKN035 TEMPO 2612/2614 BKN020 FM261500 10005KT P6SM SCT040
KDAN 
34nm E 
261122Z 2612/2712 02004KT P6SM SCT035 TEMPO 2612/2614 BKN035 FM261500 08004KT P6SM SCT040
NOTAMs
Click for the latest NOTAMs
NOTAMs are issued by the DoD/FAA and will open in a separate window not controlled by AirNav.

 

 
 

Would you like to see your business listed on this page?

 If your business provides an interesting product or service to pilots, flight crews, aircraft, or users of the Covington Airport, you should consider listing it here.  To start the listing process, click on the button below
 
Add a business
 

Other Pages about Covington Airport

Update a link
 
Copyright © AirNav, LLC. All rights reserved. Privacy Policy  Contact